Time,TemperatureF,DewpointF,PressureIn,WindDirection,WindDirectionDegrees,WindSpeedMPH,WindSpeedGustMPH,Humidity,HourlyPrecipIn,Conditions,Clouds,dailyrainin,SoftwareType,DateUTC
2013-09-10 00:05:00,52.5,48.0,29.95,SSW,213,0.0,-999.0,85,-99.99,,,0.00,weatherlink.com 1.10,2013-09-10 07:05:00,
2013-09-10 00:20:00,51.4,47.0,29.96,SSW,213,0.0,-999.0,85,-99.99,,,0.00,weatherlink.com 1.10,2013-09-10 07:20:00,
2013-09-10 00:35:00,51.3,48.0,29.96,SSW,213,0.0,-999.0,88,-99.99,,,0.00,weatherlink.com 1.10,2013-09-10 07:35:00,
2013-09-10 00:50:00,51.3,48.0,29.97,SSW,213,0.0,-999.0,88,-99.99,,,0.00,weatherlink.com 1.10,2013-09-10 07:50:00,
2013-09-10 01:05:00,51.0,48.0,29.97,SSW,213,0.0,-999.0,89,-99.99,,,0.00,weatherlink.com 1.10,2013-09-10 08:05:00,
2013-09-10 01:20:00,50.5,47.0,29.97,SSW,213,0.0,-999.0,89,-99.99,,,0.00,weatherlink.com 1.10,2013-09-10 08:20:00,
2013-09-10 01:35:00,49.8,47.0,29.97,SSW,213,0.0,-999.0,89,-99.99,,,0.00,weatherlink.com 1.10,2013-09-10 08:35:00,
2013-09-10 01:50:00,49.6,47.0,29.97,SSW,213,0.0,-999.0,90,-99.99,,,0.00,weatherlink.com 1.10,2013-09-10 08:50:00,
2013-09-10 02:05:00,49.4,47.0,29.97,SSW,213,0.0,-999.0,90,-99.99,,,0.00,weatherlink.com 1.10,2013-09-10 09:05:00,
2013-09-10 02:20:00,49.4,47.0,29.97,SSW,213,0.0,-999.0,90,-99.99,,,0.00,weatherlink.com 1.10,2013-09-10 09:20:00,
2013-09-10 02:35:00,49.1,46.0,29.97,SSW,213,0.0,-999.0,90,-99.99,,,0.00,weatherlink.com 1.10,2013-09-10 09:35:00,
2013-09-10 02:50:00,48.4,45.0,29.98,SSW,213,0.0,-999.0,89,-99.99,,,0.00,weatherlink.com 1.10,2013-09-10 09:50:00,
2013-09-10 03:05:00,47.7,45.0,29.98,SSW,213,0.0,-999.0,90,-99.99,,,0.00,weatherlink.com 1.10,2013-09-10 10:05:00,
2013-09-10 03:20:00,47.6,45.0,29.98,SSW,213,0.0,-999.0,92,-99.99,,,0.00,weatherlink.com 1.10,2013-09-10 10:20:00,
2013-09-10 03:35:00,48.2,46.0,29.97,SSW,213,0.0,-999.0,93,-99.99,,,0.00,weatherlink.com 1.10,2013-09-10 10:35:00,
2013-09-10 03:50:00,47.6,45.0,29.98,SSW,213,0.0,-999.0,91,-99.99,,,0.00,weatherlink.com 1.10,2013-09-10 10:50:00,
2013-09-10 04:05:00,46.1,43.0,29.98,SSW,213,0.0,-999.0,90,-99.99,,,0.00,weatherlink.com 1.10,2013-09-10 11:05:00,
2013-09-10 04:20:00,45.2,43.0,29.97,SSW,213,0.0,-999.0,91,-99.99,,,0.00,weatherlink.com 1.10,2013-09-10 11:20:00,
2013-09-10 04:35:00,45.1,43.0,29.98,SSW,213,0.0,-999.0,92,-99.99,,,0.00,weatherlink.com 1.10,2013-09-10 11:35:00,
2013-09-10 04:51:00,45.2,43.0,29.98,SSW,213,0.0,-999.0,93,-99.99,,,0.00,weatherlink.com 1.10,2013-09-10 11:51:00,
2013-09-10 05:06:00,45.4,44.0,29.98,SSW,213,0.0,-999.0,93,-99.99,,,0.00,weatherlink.com 1.10,2013-09-10 12:06:00,
2013-09-10 05:21:00,45.4,44.0,29.98,SSW,213,0.0,-999.0,94,-99.99,,,0.00,weatherlink.com 1.10,2013-09-10 12:21:00,
2013-09-10 05:36:00,45.4,44.0,29.99,SSW,213,0.0,-999.0,94,-99.99,,,0.00,weatherlink.com 1.10,2013-09-10 12:36:00,
2013-09-10 05:51:00,45.1,43.0,29.99,SSW,213,0.0,-999.0,93,-99.99,,,0.00,weatherlink.com 1.10,2013-09-10 12:51:00,
2013-09-10 06:06:00,45.1,43.0,30.00,SSW,213,0.0,-999.0,93,-99.99,,,0.00,weatherlink.com 1.10,2013-09-10 13:06:00,
2013-09-10 06:21:00,44.5,42.0,30.00,SSW,213,0.0,-999.0,92,-99.99,,,0.00,weatherlink.com 1.10,2013-09-10 13:21:00,
2013-09-10 06:36:00,44.5,43.0,30.00,SSW,213,0.0,-999.0,93,-99.99,,,0.00,weatherlink.com 1.10,2013-09-10 13:36:00,
2013-09-10 06:51:00,44.9,43.0,30.01,SSW,213,0.0,-999.0,93,-99.99,,,0.00,weatherlink.com 1.10,2013-09-10 13:51:00,
2013-09-10 07:06:00,45.3,43.0,30.01,SSW,213,0.0,-999.0,91,-99.99,,,0.00,weatherlink.com 1.10,2013-09-10 14:06:00,
2013-09-10 07:21:00,46.1,44.0,30.02,SSW,213,0.0,-999.0,92,-99.99,,,0.00,weatherlink.com 1.10,2013-09-10 14:21:00,
2013-09-10 07:36:00,47.8,46.0,30.02,SSW,213,0.0,-999.0,93,-99.99,,,0.00,weatherlink.com 1.10,2013-09-10 14:36:00,
2013-09-10 07:51:00,49.9,48.0,30.02,SSW,213,0.0,-999.0,92,-99.99,,,0.00,weatherlink.com 1.10,2013-09-10 14:51:00,
2013-09-10 08:06:00,52.3,49.0,30.02,SSW,213,0.0,-999.0,89,-99.99,,,0.00,weatherlink.com 1.10,2013-09-10 15:06:00,
2013-09-10 08:21:00,56.4,52.0,30.02,SSW,213,0.0,-999.0,84,-99.99,,,0.00,weatherlink.com 1.10,2013-09-10 15:21:00,
2013-09-10 08:36:00,59.9,53.0,30.02,SSW,213,0.0,-999.0,78,-99.99,,,0.00,weatherlink.com 1.10,2013-09-10 15:36:00,
2013-09-10 08:51:00,62.2,53.0,30.02,SSW,213,0.0,-999.0,72,-99.99,,,0.00,weatherlink.com 1.10,2013-09-10 15:51:00,
2013-09-10 09:06:00,63.8,53.0,30.02,SSW,213,0.0,-999.0,69,-99.99,,,0.00,weatherlink.com 1.10,2013-09-10 16:06:00,
2013-09-10 09:21:00,66.4,54.0,30.02,SSW,213,0.0,-999.0,65,-99.99,,,0.00,weatherlink.com 1.10,2013-09-10 16:21:00,
2013-09-10 09:36:00,67.2,54.0,30.02,SSW,213,0.0,-999.0,62,-99.99,,,0.00,weatherlink.com 1.10,2013-09-10 16:36:00,
2013-09-10 09:51:00,70.1,53.0,30.02,SSW,213,0.0,-999.0,55,-99.99,,,0.00,weatherlink.com 1.10,2013-09-10 16:51:00,
2013-09-10 10:06:00,71.1,52.0,30.02,SSW,213,0.0,-999.0,52,-99.99,,,0.00,weatherlink.com 1.10,2013-09-10 17:06:00,
2013-09-10 10:21:00,71.6,52.0,30.02,South,172,0.0,-999.0,50,-99.99,,,0.00,weatherlink.com 1.10,2013-09-10 17:21:00,
2013-09-10 10:36:00,72.6,52.0,30.01,SSE,153,0.0,-999.0,49,-99.99,,,0.00,weatherlink.com 1.10,2013-09-10 17:36:00,
2013-09-10 10:51:00,74.2,52.0,30.00,South,169,0.0,-999.0,46,-99.99,,,0.00,weatherlink.com 1.10,2013-09-10 17:51:00,
2013-09-10 11:06:00,76.5,53.0,30.00,ENE,58,0.0,-999.0,44,-99.99,,,0.00,weatherlink.com 1.10,2013-09-10 18:06:00,
2013-09-10 11:21:00,75.8,52.0,30.00,West,281,3.0,-999.0,43,-99.99,,,0.00,weatherlink.com 1.10,2013-09-10 18:21:00,
2013-09-10 11:36:00,77.4,51.0,29.99,SSW,197,1.0,-999.0,40,-99.99,,,0.00,weatherlink.com 1.10,2013-09-10 18:36:00,
2013-09-10 11:51:00,78.9,51.0,29.98,SSW,196,0.0,-999.0,38,-99.99,,,0.00,weatherlink.com 1.10,2013-09-10 18:51:00,
2013-09-10 12:07:00,78.9,48.0,29.98,SSW,210,3.0,-999.0,34,-99.99,,,0.00,weatherlink.com 1.10,2013-09-10 19:07:00,
2013-09-10 12:22:00,80.2,49.0,29.97,East,88,0.0,-999.0,33,-99.99,,,0.00,weatherlink.com 1.10,2013-09-10 19:22:00,
2013-09-10 12:37:00,80.1,48.0,29.97,WNW,291,5.0,-999.0,33,-99.99,,,0.00,weatherlink.com 1.10,2013-09-10 19:37:00,
2013-09-10 12:52:00,82.8,48.0,29.97,NNE,26,1.0,-999.0,30,-99.99,,,0.00,weatherlink.com 1.10,2013-09-10 19:52:00,
2013-09-10 13:07:00,82.4,46.0,29.96,East,96,4.0,-999.0,28,-99.99,,,0.00,weatherlink.com 1.10,2013-09-10 20:07:00,
2013-09-10 13:22:00,82.6,47.0,29.96,East,86,0.0,-999.0,29,-99.99,,,0.00,weatherlink.com 1.10,2013-09-10 20:22:00,
2013-09-10 13:37:00,82.7,46.0,29.95,SSW,199,1.0,-999.0,28,-99.99,,,0.00,weatherlink.com 1.10,2013-09-10 20:37:00,
2013-09-10 13:52:00,83.9,47.0,29.95,NNW,348,1.0,-999.0,28,-99.99,,,0.00,weatherlink.com 1.10,2013-09-10 20:52:00,
2013-09-10 14:07:00,84.1,46.0,29.95,ENE,57,3.0,-999.0,26,-99.99,,,0.00,weatherlink.com 1.10,2013-09-10 21:07:00,
2013-09-10 14:22:00,84.6,48.0,29.94,NW,311,2.0,-999.0,28,-99.99,,,0.00,weatherlink.com 1.10,2013-09-10 21:22:00,
2013-09-10 14:37:00,84.6,49.0,29.93,NW,312,5.0,-999.0,29,-99.99,,,0.00,weatherlink.com 1.10,2013-09-10 21:37:00,
2013-09-10 14:52:00,84.9,47.0,29.93,NE,52,3.0,-999.0,27,-99.99,,,0.00,weatherlink.com 1.10,2013-09-10 21:52:00,
2013-09-10 15:07:00,85.5,50.0,29.93,ENE,63,2.0,-999.0,29,-99.99,,,0.00,weatherlink.com 1.10,2013-09-10 22:07:00,
2013-09-10 15:22:00,86.1,50.0,29.92,NW,315,0.0,-999.0,29,-99.99,,,0.00,weatherlink.com 1.10,2013-09-10 22:22:00,
2013-09-10 15:52:00,84.7,48.0,29.91,WNW,292,4.0,-999.0,28,-99.99,,,0.00,weatherlink.com 1.10,2013-09-10 22:52:00,
2013-09-10 16:07:00,85.3,47.0,29.91,East,79,3.0,-999.0,26,-99.99,,,0.00,weatherlink.com 1.10,2013-09-10 23:07:00,
2013-09-10 16:22:00,86.0,44.0,29.91,ENE,67,1.0,-999.0,23,-99.99,,,0.00,weatherlink.com 1.10,2013-09-10 23:22:00,
2013-09-10 16:37:00,85.8,46.0,29.91,East,80,0.0,-999.0,25,-99.99,,,0.00,weatherlink.com 1.10,2013-09-10 23:37:00,
2013-09-10 16:52:00,85.3,49.0,29.91,WNW,290,4.0,-999.0,28,-99.99,,,0.00,weatherlink.com 1.10,2013-09-10 23:52:00,
2013-09-10 17:07:00,85.0,48.0,29.91,WNW,283,5.0,-999.0,28,-99.99,,,0.00,weatherlink.com 1.10,2013-09-11 00:07:00,
2013-09-10 17:22:00,84.7,49.0,29.91,West,279,2.0,-999.0,29,-99.99,,,0.00,weatherlink.com 1.10,2013-09-11 00:22:00,
2013-09-10 17:37:00,83.9,48.0,29.91,NW,305,2.0,-999.0,29,-99.99,,,0.00,weatherlink.com 1.10,2013-09-11 00:37:00,
2013-09-10 17:52:00,83.3,49.0,29.91,WNW,290,3.0,-999.0,30,-99.99,,,0.00,weatherlink.com 1.10,2013-09-11 00:52:00,
2013-09-10 18:07:00,82.7,48.0,29.91,WNW,303,4.0,-999.0,30,-99.99,,,0.00,weatherlink.com 1.10,2013-09-11 01:07:00,
2013-09-10 18:22:00,82.0,48.0,29.90,WNW,303,4.0,-999.0,30,-99.99,,,0.00,weatherlink.com 1.10,2013-09-11 01:22:00,
2013-09-10 18:37:00,80.6,47.0,29.91,WNW,289,2.0,-999.0,31,-99.99,,,0.00,weatherlink.com 1.10,2013-09-11 01:37:00,
2013-09-10 18:52:00,79.5,47.0,29.91,WNW,289,0.0,-999.0,32,-99.99,,,0.00,weatherlink.com 1.10,2013-09-11 01:52:00,
2013-09-10 19:07:00,76.7,50.0,29.91,WNW,289,0.0,-999.0,39,-99.99,,,0.00,weatherlink.com 1.10,2013-09-11 02:07:00,
2013-09-10 19:22:00,74.3,49.0,29.91,WNW,289,0.0,-999.0,41,-99.99,,,0.00,weatherlink.com 1.10,2013-09-11 02:22:00,
2013-09-10 19:37:00,72.1,49.0,29.91,WNW,289,0.0,-999.0,44,-99.99,,,0.00,weatherlink.com 1.10,2013-09-11 02:37:00,
2013-09-10 19:52:00,69.8,49.0,29.92,WNW,289,0.0,-999.0,48,-99.99,,,0.00,weatherlink.com 1.10,2013-09-11 02:52:00,
2013-09-10 20:07:00,68.8,50.0,29.92,WNW,289,0.0,-999.0,51,-99.99,,,0.00,weatherlink.com 1.10,2013-09-11 03:07:00,
2013-09-10 20:22:00,67.2,50.0,29.93,WNW,289,0.0,-999.0,54,-99.99,,,0.00,weatherlink.com 1.10,2013-09-11 03:22:00,
2013-09-10 20:37:00,65.2,49.0,29.93,WNW,289,0.0,-999.0,57,-99.99,,,0.00,weatherlink.com 1.10,2013-09-11 03:37:00,
2013-09-10 20:52:00,64.5,51.0,29.94,WNW,289,0.0,-999.0,62,-99.99,,,0.00,weatherlink.com 1.10,2013-09-11 03:52:00,
2013-09-10 21:07:00,63.7,52.0,29.94,WNW,289,0.0,-999.0,65,-99.99,,,0.00,weatherlink.com 1.10,2013-09-11 04:07:00,
2013-09-10 21:22:00,62.3,50.0,29.94,WNW,289,0.0,-999.0,64,-99.99,,,0.00,weatherlink.com 1.10,2013-09-11 04:22:00,
2013-09-10 21:37:00,61.2,50.0,29.94,WNW,289,0.0,-999.0,66,-99.99,,,0.00,weatherlink.com 1.10,2013-09-11 04:37:00,
2013-09-10 21:52:00,60.4,50.0,29.94,WNW,289,0.0,-999.0,68,-99.99,,,0.00,weatherlink.com 1.10,2013-09-11 04:52:00,
2013-09-10 22:07:00,59.7,50.0,29.95,WNW,289,0.0,-999.0,70,-99.99,,,0.00,weatherlink.com 1.10,2013-09-11 05:07:00,
2013-09-10 22:22:00,59.0,49.0,29.95,WNW,289,0.0,-999.0,70,-99.99,,,0.00,weatherlink.com 1.10,2013-09-11 05:22:00,
2013-09-10 22:37:00,58.4,49.0,29.95,WNW,289,0.0,-999.0,71,-99.99,,,0.00,weatherlink.com 1.10,2013-09-11 05:37:00,
2013-09-10 22:52:00,57.8,50.0,29.95,WNW,289,0.0,-999.0,74,-99.99,,,0.00,weatherlink.com 1.10,2013-09-11 05:52:00,
2013-09-10 23:07:00,56.6,49.0,29.95,WNW,289,0.0,-999.0,75,-99.99,,,0.00,weatherlink.com 1.10,2013-09-11 06:07:00,
2013-09-10 23:22:00,56.1,49.0,29.96,WNW,289,0.0,-999.0,77,-99.99,,,0.00,weatherlink.com 1.10,2013-09-11 06:22:00,
2013-09-10 23:37:00,54.8,47.0,29.96,WNW,289,0.0,-999.0,76,-99.99,,,0.00,weatherlink.com 1.10,2013-09-11 06:37:00,
2013-09-10 23:52:00,54.4,48.0,29.96,WNW,289,0.0,-999.0,79,-99.99,,,0.00,weatherlink.com 1.10,2013-09-11 06:52:00,